Annapolis, Missouri
Current Conditions -  °F | °C
As of 2:53 PM on Friday 31 Oct 2014 (Local Time) from KPOF Reporting Station
Clear Clear  
Wind Chill: 53°   Ceiling: Unl
Heat Index: 53°   Visibility: 10mi
Dew Point: 20°   Wind: 18mph
Humidity: 27%   Direction: 360°N
Pressure: 30.21"   Gusts: 36mph
Location:  37.36°N, 90.7°W
Report Text: KPOF 311953Z AUTO 36016G31KT 10SM CLR 12/M07 A3021 RMK AO2 PK WND 33031/1951 SLP231 T01171067
Loading
Personal Weather Stations






























Interactive Weather Map
Tropical Storm Tracking
New forecast layout! Learn more

10-Day Weather Forecast

Advertisements
Track Severe Weather on mobile